createdAt,value
2018-12-24T00:00:33.773Z,6.0
2018-12-24T00:01:34.443Z,6.0
2018-12-24T00:02:35.112Z,5.9
2018-12-24T00:03:35.783Z,5.9
2018-12-24T00:04:36.453Z,5.9
2018-12-24T00:05:37.123Z,6.1
2018-12-24T00:06:37.792Z,6.1
2018-12-24T00:07:38.463Z,6.0
2018-12-24T00:08:39.133Z,6.0
2018-12-24T00:09:39.803Z,6.0
2018-12-24T00:10:40.474Z,6.1
2018-12-24T00:11:41.143Z,6.1
2018-12-24T00:12:41.815Z,6.1
2018-12-24T00:13:42.484Z,6.0
2018-12-24T00:14:43.205Z,6.1
2018-12-24T00:15:43.871Z,6.0
2018-12-24T00:16:44.541Z,6.1
2018-12-24T00:17:45.212Z,6.0
2018-12-24T00:18:45.887Z,6.1
2018-12-24T00:19:46.602Z,6.0
2018-12-24T00:20:47.273Z,6.1
2018-12-24T00:21:47.943Z,6.1
2018-12-24T00:22:48.706Z,6.2
2018-12-24T00:23:49.327Z,6.1
2018-12-24T00:24:49.997Z,6.2
2018-12-24T00:25:50.667Z,6.1
2018-12-24T00:26:51.386Z,6.1
2018-12-24T00:27:52.055Z,6.1
2018-12-24T00:28:52.726Z,6.1
2018-12-24T00:29:53.396Z,6.1
2018-12-24T00:30:54.065Z,6.1
2018-12-24T00:31:54.734Z,6.2
2018-12-24T00:32:55.404Z,6.2
2018-12-24T00:33:56.074Z,6.0
2018-12-24T00:34:56.744Z,6.0
2018-12-24T00:35:57.414Z,6.0
2018-12-24T00:36:58.089Z,6.1
2018-12-24T00:37:58.756Z,6.0
2018-12-24T00:38:59.426Z,6.0
2018-12-24T00:40:00.096Z,6.0
2018-12-24T00:41:00.764Z,6.1
2018-12-24T00:42:01.435Z,6.0
2018-12-24T00:43:02.109Z,5.9
2018-12-24T00:44:02.775Z,5.9
2018-12-24T00:45:03.444Z,6.0
2018-12-24T00:46:04.114Z,6.0
2018-12-24T00:47:04.784Z,6.0
2018-12-24T00:48:05.455Z,6.0
2018-12-24T00:49:06.126Z,6.0
2018-12-24T00:50:06.845Z,6.0
2018-12-24T00:51:07.514Z,5.9
2018-12-24T00:52:08.186Z,5.9
2018-12-24T00:53:08.857Z,6.0
2018-12-24T00:54:09.528Z,5.9
2018-12-24T00:55:10.196Z,5.9
2018-12-24T00:56:10.866Z,6.0
2018-12-24T00:57:11.542Z,5.9
2018-12-24T00:58:12.207Z,6.0
2018-12-24T00:59:12.880Z,6.0
2018-12-24T01:00:13.548Z,6.0
2018-12-24T01:01:14.218Z,6.1
2018-12-24T01:02:14.887Z,6.0
2018-12-24T01:03:15.558Z,6.0
2018-12-24T01:04:16.227Z,5.9
2018-12-24T01:05:16.896Z,6.0
2018-12-24T01:06:17.568Z,5.9
2018-12-24T01:07:18.237Z,5.9
2018-12-24T01:08:18.908Z,5.9
2018-12-24T01:09:19.577Z,6.0
2018-12-24T01:10:20.248Z,6.0
2018-12-24T01:11:20.918Z,6.0
2018-12-24T01:12:24.750Z,6.0
2018-12-24T01:13:23.250Z,5.9
2018-12-24T01:14:23.918Z,5.9
2018-12-24T01:15:24.587Z,6.0
2018-12-24T01:16:25.259Z,5.9
2018-12-24T01:17:25.977Z,5.9
2018-12-24T01:18:26.646Z,5.9
2018-12-24T01:19:27.316Z,5.9
2018-12-24T01:20:27.987Z,5.8
2018-12-24T01:21:28.657Z,5.8
2018-12-24T01:22:29.326Z,5.9
2018-12-24T01:23:30.044Z,5.8
2018-12-24T01:24:30.716Z,5.8
2018-12-24T01:25:31.383Z,5.8
2018-12-24T01:26:32.055Z,5.9
2018-12-24T01:27:32.773Z,5.9
2018-12-24T01:28:33.442Z,5.8
2018-12-24T01:29:34.112Z,5.8
2018-12-24T01:30:34.783Z,5.8
2018-12-24T01:31:35.454Z,5.9
2018-12-24T01:32:36.120Z,5.8
2018-12-24T01:33:36.793Z,5.8
2018-12-24T01:34:37.511Z,5.8
2018-12-24T01:35:38.178Z,5.9
2018-12-24T01:36:38.849Z,5.9
2018-12-24T01:37:39.518Z,5.8
2018-12-24T01:38:40.188Z,5.8
2018-12-24T01:39:40.908Z,5.9
2018-12-24T01:40:41.579Z,5.8
2018-12-24T01:41:42.246Z,5.8
2018-12-24T01:42:42.965Z,5.7
2018-12-24T01:43:43.632Z,5.8
2018-12-24T01:44:44.303Z,5.8
2018-12-24T01:45:44.973Z,5.8
2018-12-24T01:46:45.643Z,5.8
2018-12-24T01:47:46.312Z,5.8
2018-12-24T01:48:46.982Z,5.8
2018-12-24T01:49:47.650Z,5.9
2018-12-24T01:50:48.322Z,5.8
2018-12-24T01:51:48.992Z,5.9
2018-12-24T01:52:49.661Z,5.9
2018-12-24T01:53:50.331Z,5.8
2018-12-24T01:54:50.999Z,5.8
2018-12-24T01:55:51.669Z,5.8
2018-12-24T01:56:52.338Z,5.8
2018-12-24T01:57:53.008Z,5.8
2018-12-24T01:58:53.677Z,5.9
2018-12-24T01:59:54.347Z,5.9
2018-12-24T02:00:55.019Z,5.9
2018-12-24T02:01:55.686Z,5.9
2018-12-24T02:02:56.356Z,5.9
2018-12-24T02:03:57.024Z,5.8
2018-12-24T02:04:57.742Z,5.9
2018-12-24T02:05:58.412Z,5.9
2018-12-24T02:06:59.083Z,5.8
2018-12-24T02:07:59.752Z,5.8
2018-12-24T02:09:00.422Z,5.7
2018-12-24T02:10:01.094Z,5.7
2018-12-24T02:11:01.768Z,5.7
2018-12-24T02:12:02.433Z,5.6
2018-12-24T02:13:03.101Z,5.7
2018-12-24T02:14:03.774Z,5.6
2018-12-24T02:15:04.442Z,5.6
2018-12-24T02:16:05.112Z,5.6
2018-12-24T02:17:05.780Z,5.6
2018-12-24T02:18:06.449Z,5.6
2018-12-24T02:19:07.118Z,5.6
2018-12-24T02:20:07.788Z,5.7
2018-12-24T02:21:08.458Z,5.7
2018-12-24T02:22:12.906Z,5.7
2018-12-24T02:23:10.793Z,5.6
2018-12-24T02:24:11.459Z,5.7
2018-12-24T02:25:12.128Z,5.8
2018-12-24T02:26:12.798Z,5.7
2018-12-24T02:27:13.466Z,5.7
2018-12-24T02:28:14.137Z,5.8
2018-12-24T02:29:14.807Z,5.8
2018-12-24T02:30:15.478Z,5.8
2018-12-24T02:31:16.149Z,5.8
2018-12-24T02:32:16.820Z,5.8
2018-12-24T02:33:17.488Z,5.9
2018-12-24T02:34:18.161Z,5.9
2018-12-24T02:35:18.828Z,5.9
2018-12-24T02:36:19.499Z,5.9
2018-12-24T02:37:20.262Z,5.8
2018-12-24T02:38:20.899Z,5.8
2018-12-24T02:39:21.569Z,5.8
2018-12-24T02:40:22.239Z,5.8
2018-12-24T02:41:22.909Z,5.7
2018-12-24T02:42:23.579Z,5.7
2018-12-24T02:43:24.249Z,5.7
2018-12-24T02:44:24.918Z,5.8
2018-12-24T02:45:25.588Z,5.7
2018-12-24T02:46:26.259Z,5.7
2018-12-24T02:47:26.945Z,5.7
2018-12-24T02:48:27.603Z,5.7
2018-12-24T02:49:28.266Z,5.8
2018-12-24T02:50:28.939Z,5.7
2018-12-24T02:51:29.608Z,5.7
2018-12-24T02:52:30.276Z,5.7
2018-12-24T02:53:30.946Z,5.7
2018-12-24T02:54:31.628Z,5.7
2018-12-24T02:55:32.334Z,5.6
2018-12-24T02:56:33.006Z,5.7
2018-12-24T02:57:33.679Z,5.5
2018-12-24T02:58:34.497Z,5.6
2018-12-24T02:59:35.133Z,5.5
2018-12-24T03:00:35.802Z,5.7
2018-12-24T03:01:36.474Z,5.6
2018-12-24T03:02:37.142Z,5.5
2018-12-24T03:03:37.814Z,5.5
2018-12-24T03:04:38.482Z,5.6
2018-12-24T03:05:39.150Z,5.5
2018-12-24T03:06:39.821Z,5.7
2018-12-24T03:07:40.489Z,5.6
2018-12-24T03:08:41.160Z,5.5
2018-12-24T03:09:41.835Z,5.6
2018-12-24T03:10:42.496Z,5.6
2018-12-24T03:11:43.168Z,5.5
2018-12-24T03:12:43.835Z,5.5
2018-12-24T03:13:44.510Z,5.5
2018-12-24T03:14:45.173Z,5.6
2018-12-24T03:15:45.844Z,5.5
2018-12-24T03:16:46.513Z,5.6
2018-12-24T03:17:47.184Z,5.6
2018-12-24T03:18:47.852Z,5.5
2018-12-24T03:19:48.522Z,5.5
2018-12-24T03:20:49.189Z,5.5
2018-12-24T03:21:49.860Z,5.5
2018-12-24T03:22:50.530Z,5.6
2018-12-24T03:23:51.200Z,5.5
2018-12-24T03:24:51.870Z,5.5
2018-12-24T03:25:52.539Z,5.5
2018-12-24T03:26:53.207Z,5.6
2018-12-24T03:27:53.953Z,5.5
2018-12-24T03:28:54.573Z,5.5
2018-12-24T03:29:55.241Z,5.5
2018-12-24T03:30:55.912Z,5.5
2018-12-24T03:31:56.581Z,5.5
2018-12-24T03:32:57.257Z,5.5
2018-12-24T03:33:57.915Z,5.4
2018-12-24T03:34:58.631Z,5.5
2018-12-24T03:35:59.300Z,5.5
2018-12-24T03:36:59.971Z,5.5
2018-12-24T03:38:00.645Z,5.4
2018-12-24T03:39:01.359Z,5.5
2018-12-24T03:40:02.030Z,5.5
2018-12-24T03:41:02.750Z,5.5
2018-12-24T03:42:03.415Z,5.4
2018-12-24T03:43:12.547Z,5.5
2018-12-24T03:44:05.751Z,5.4
2018-12-24T03:45:06.417Z,5.5
2018-12-24T03:46:07.086Z,5.5
2018-12-24T03:47:07.756Z,5.4
2018-12-24T03:48:08.424Z,5.5
2018-12-24T03:49:09.098Z,5.4
2018-12-24T03:50:09.764Z,5.5
2018-12-24T03:51:10.437Z,5.4
2018-12-24T03:52:11.152Z,5.4
2018-12-24T03:53:11.822Z,5.3
2018-12-24T03:54:12.491Z,5.4
2018-12-24T03:55:13.161Z,5.5
2018-12-24T03:56:13.839Z,5.5
2018-12-24T03:57:14.502Z,5.3
2018-12-24T03:58:15.175Z,5.4
2018-12-24T03:59:15.893Z,5.5
2018-12-24T04:00:16.611Z,5.5
2018-12-24T04:01:17.279Z,5.4
2018-12-24T04:02:17.950Z,5.4
2018-12-24T04:03:18.619Z,5.3
2018-12-24T04:04:19.293Z,5.4
2018-12-24T04:05:19.960Z,5.4
2018-12-24T04:06:20.628Z,5.4
2018-12-24T04:07:21.296Z,5.4
2018-12-24T04:08:21.968Z,5.4
2018-12-24T04:09:22.684Z,5.4
2018-12-24T04:10:23.355Z,5.4
2018-12-24T04:11:24.327Z,5.4
2018-12-24T04:12:24.984Z,5.4
2018-12-24T04:13:25.655Z,5.4
2018-12-24T04:14:26.321Z,5.4
2018-12-24T04:15:26.991Z,5.4
2018-12-24T04:16:27.751Z,5.4
2018-12-24T04:17:28.419Z,5.4
2018-12-24T04:18:29.089Z,5.4
2018-12-24T04:19:29.757Z,5.4
2018-12-24T04:20:30.428Z,5.4
2018-12-24T04:21:31.099Z,5.3
2018-12-24T04:22:31.766Z,5.5
2018-12-24T04:23:32.435Z,5.4
2018-12-24T04:24:33.104Z,5.4
2018-12-24T04:25:33.774Z,5.4
2018-12-24T04:26:34.442Z,5.4
2018-12-24T04:27:41.621Z,5.4
2018-12-24T04:28:36.780Z,5.4
2018-12-24T04:29:37.443Z,5.4
2018-12-24T04:30:38.116Z,5.5
2018-12-24T04:31:38.784Z,5.4
2018-12-24T04:32:39.453Z,5.4
2018-12-24T04:33:40.123Z,5.3
2018-12-24T04:34:40.792Z,5.4
2018-12-24T04:35:41.511Z,5.4
2018-12-24T04:36:42.182Z,5.5
2018-12-24T04:37:42.851Z,5.4
2018-12-24T04:38:43.525Z,5.4
2018-12-24T04:39:44.187Z,5.5
2018-12-24T04:40:44.864Z,5.4
2018-12-24T04:41:45.578Z,5.5
2018-12-24T04:42:46.294Z,5.5
2018-12-24T04:43:46.965Z,5.5
2018-12-24T04:44:47.635Z,5.5
2018-12-24T04:45:48.305Z,5.5
2018-12-24T04:46:48.975Z,5.5
2018-12-24T04:47:49.645Z,5.5
2018-12-24T04:48:50.316Z,5.6
2018-12-24T04:49:50.995Z,5.5
2018-12-24T04:50:51.654Z,5.6
2018-12-24T04:51:52.324Z,5.5
2018-12-24T04:52:52.993Z,5.6
2018-12-24T04:53:53.663Z,5.6
2018-12-24T04:54:54.333Z,5.4
2018-12-24T04:55:55.003Z,5.4
2018-12-24T04:56:55.672Z,5.5
2018-12-24T04:57:56.340Z,5.4
2018-12-24T04:58:57.013Z,5.5
2018-12-24T04:59:57.680Z,5.5
2018-12-24T05:00:58.348Z,5.5
2018-12-24T05:01:59.019Z,5.5
2018-12-24T05:02:59.689Z,5.5
2018-12-24T05:04:00.357Z,5.6
2018-12-24T05:05:01.028Z,5.5
2018-12-24T05:06:01.696Z,5.5
2018-12-24T05:07:02.369Z,5.5
2018-12-24T05:08:03.035Z,5.5
2018-12-24T05:09:03.710Z,5.6
2018-12-24T05:10:04.377Z,5.6
2018-12-24T05:11:05.046Z,5.6
2018-12-24T05:12:05.772Z,5.6
2018-12-24T05:13:06.442Z,5.5
2018-12-24T05:14:07.113Z,5.7
2018-12-24T05:15:07.829Z,5.6
2018-12-24T05:16:08.547Z,5.7
2018-12-24T05:17:09.219Z,5.6
2018-12-24T05:18:09.888Z,5.6
2018-12-24T05:19:10.557Z,5.6
2018-12-24T05:20:11.226Z,5.6
2018-12-24T05:21:11.896Z,5.6
2018-12-24T05:22:12.565Z,5.6
2018-12-24T05:23:13.241Z,5.6
2018-12-24T05:24:13.953Z,5.7
2018-12-24T05:25:14.622Z,5.7
2018-12-24T05:26:15.292Z,5.6
2018-12-24T05:27:16.011Z,5.7
2018-12-24T05:28:16.680Z,5.7
2018-12-24T05:29:17.349Z,5.7
2018-12-24T05:30:18.017Z,5.7
2018-12-24T05:31:18.690Z,5.6
2018-12-24T05:32:19.358Z,5.6
2018-12-24T05:33:20.027Z,5.6
2018-12-24T05:34:20.695Z,5.6
2018-12-24T05:35:21.364Z,5.6
2018-12-24T05:36:22.035Z,5.5
2018-12-24T05:37:22.707Z,5.7
2018-12-24T05:38:23.374Z,5.7
2018-12-24T05:39:24.043Z,5.6
2018-12-24T05:40:24.714Z,5.6
2018-12-24T05:41:25.383Z,5.7
2018-12-24T05:42:26.054Z,5.7
2018-12-24T05:43:26.722Z,5.6
2018-12-24T05:44:27.392Z,5.7
2018-12-24T05:45:28.064Z,5.7
2018-12-24T05:46:28.731Z,5.7
2018-12-24T05:47:29.401Z,5.7
2018-12-24T05:48:30.071Z,5.8
2018-12-24T05:49:30.742Z,5.8
2018-12-24T05:50:31.412Z,5.8
2018-12-24T05:51:32.081Z,5.8
2018-12-24T05:52:32.754Z,5.9
2018-12-24T05:53:33.421Z,5.8
2018-12-24T05:54:34.139Z,5.8
2018-12-24T05:55:34.810Z,5.9
2018-12-24T05:56:35.480Z,5.8
2018-12-24T05:57:36.148Z,5.9
2018-12-24T05:58:36.817Z,5.9
2018-12-24T05:59:37.488Z,5.8
2018-12-24T06:00:38.157Z,5.9
2018-12-24T06:01:38.827Z,5.9
2018-12-24T06:02:39.497Z,5.9
2018-12-24T06:03:40.171Z,6.0
2018-12-24T06:04:40.839Z,5.8
2018-12-24T06:05:41.508Z,6.0
2018-12-24T06:06:42.178Z,6.0
2018-12-24T06:07:42.914Z,5.9
2018-12-24T06:08:43.536Z,6.0
2018-12-24T06:09:44.206Z,6.0
2018-12-24T06:10:44.875Z,5.9
2018-12-24T06:11:45.545Z,6.0
2018-12-24T06:12:46.214Z,5.9
2018-12-24T06:13:46.885Z,6.0
2018-12-24T06:14:47.553Z,6.0
2018-12-24T06:15:48.222Z,6.0
2018-12-24T06:16:48.891Z,6.0
2018-12-24T06:17:49.562Z,6.0
2018-12-24T06:18:50.231Z,6.0
2018-12-24T06:19:50.902Z,6.1
2018-12-24T06:20:51.573Z,6.2
2018-12-24T06:21:52.243Z,6.1
2018-12-24T06:22:52.911Z,6.2
2018-12-24T06:23:53.683Z,6.2
2018-12-24T06:24:54.352Z,6.1
2018-12-24T06:25:55.826Z,6.2
2018-12-24T06:26:56.497Z,6.3
2018-12-24T06:27:57.167Z,6.2
2018-12-24T06:28:57.835Z,6.2
2018-12-24T06:29:58.507Z,6.1
2018-12-24T06:30:59.178Z,6.2
2018-12-24T06:31:59.847Z,6.0
2018-12-24T06:33:00.516Z,6.2
2018-12-24T06:34:01.189Z,6.2
2018-12-24T06:35:01.858Z,6.2
2018-12-24T06:36:02.528Z,6.2
2018-12-24T06:37:03.200Z,6.2
2018-12-24T06:38:03.869Z,6.3
2018-12-24T06:39:04.539Z,6.2
2018-12-24T06:40:05.324Z,6.2
2018-12-24T06:41:05.949Z,6.2
2018-12-24T06:42:06.618Z,6.2
2018-12-24T06:43:07.340Z,6.3
2018-12-24T06:44:08.006Z,6.3
2018-12-24T06:45:08.678Z,6.3
2018-12-24T06:46:09.349Z,6.2
2018-12-24T06:47:10.016Z,6.3
2018-12-24T06:48:10.686Z,6.3
2018-12-24T06:49:11.357Z,6.2
2018-12-24T06:50:12.029Z,6.2
2018-12-24T06:51:12.696Z,6.2
2018-12-24T06:52:13.367Z,6.2
2018-12-24T06:53:14.037Z,6.2
2018-12-24T06:54:14.707Z,6.2
2018-12-24T06:55:15.376Z,6.2
2018-12-24T06:56:16.047Z,6.2
2018-12-24T06:57:16.716Z,6.2
2018-12-24T06:58:17.386Z,6.3
2018-12-24T06:59:18.058Z,6.3
2018-12-24T07:00:18.726Z,6.2
2018-12-24T07:01:19.396Z,6.3
2018-12-24T07:02:20.065Z,6.3
2018-12-24T07:03:20.735Z,6.3
2018-12-24T07:04:21.408Z,6.3
2018-12-24T07:05:22.081Z,6.3
2018-12-24T07:06:22.751Z,6.4
2018-12-24T07:07:23.424Z,6.2
2018-12-24T07:08:24.097Z,6.3
2018-12-24T07:09:24.768Z,6.3
2018-12-24T07:10:25.440Z,6.3
2018-12-24T07:11:26.114Z,6.3
2018-12-24T07:12:26.835Z,6.3
2018-12-24T07:13:27.507Z,6.2
2018-12-24T07:14:28.178Z,6.1
2018-12-24T07:15:28.851Z,6.2
2018-12-24T07:16:29.523Z,6.2
2018-12-24T07:17:30.194Z,6.1
2018-12-24T07:18:30.868Z,6.1
2018-12-24T07:19:31.539Z,6.0
2018-12-24T07:20:32.211Z,6.1
2018-12-24T07:21:32.883Z,6.1
2018-12-24T07:22:33.554Z,6.1
2018-12-24T07:23:34.227Z,6.0
2018-12-24T07:24:34.949Z,6.0
2018-12-24T07:25:35.622Z,5.9
2018-12-24T07:26:36.293Z,6.0
2018-12-24T07:27:36.966Z,5.9
2018-12-24T07:28:37.637Z,6.0
2018-12-24T07:29:38.309Z,6.1
2018-12-24T07:30:38.981Z,6.0
2018-12-24T07:31:39.652Z,6.1
2018-12-24T07:32:40.323Z,6.0
2018-12-24T07:33:40.996Z,6.1
2018-12-24T07:34:41.717Z,6.1
2018-12-24T07:35:42.388Z,6.0
2018-12-24T07:36:43.063Z,6.1
2018-12-24T07:37:43.783Z,6.0
2018-12-24T07:38:44.456Z,6.1
2018-12-24T07:39:45.126Z,6.1
2018-12-24T07:40:45.799Z,6.1
2018-12-24T07:41:46.520Z,6.1
2018-12-24T07:42:47.191Z,6.2
2018-12-24T07:43:47.863Z,6.1
2018-12-24T07:44:48.541Z,6.2
2018-12-24T07:45:49.261Z,6.2
2018-12-24T07:46:49.936Z,6.2
2018-12-24T07:47:50.609Z,6.2
2018-12-24T07:48:51.282Z,6.3
2018-12-24T07:49:51.958Z,6.3
2018-12-24T07:50:52.633Z,6.3
2018-12-24T07:51:53.306Z,6.2
2018-12-24T07:52:53.981Z,6.2
2018-12-24T07:53:54.656Z,6.1
2018-12-24T07:54:55.331Z,6.2
2018-12-24T07:55:56.005Z,6.2
2018-12-24T07:56:56.678Z,6.2
2018-12-24T07:57:57.352Z,6.2
2018-12-24T07:58:58.028Z,6.2
2018-12-24T07:59:58.701Z,6.1
2018-12-24T08:00:59.375Z,6.2
2018-12-24T08:02:00.049Z,6.2
2018-12-24T08:03:00.723Z,6.1
2018-12-24T08:04:01.396Z,6.2
2018-12-24T08:05:02.071Z,6.1
2018-12-24T08:06:02.747Z,6.2
2018-12-24T08:07:03.419Z,6.2
2018-12-24T08:08:04.093Z,6.1
2018-12-24T08:09:04.864Z,6.2
2018-12-24T08:10:05.502Z,6.2
2018-12-24T08:11:06.239Z,6.2
2018-12-24T08:12:06.914Z,6.3
2018-12-24T08:13:07.588Z,6.3
2018-12-24T08:14:08.260Z,6.3
2018-12-24T08:15:08.944Z,6.3
2018-12-24T08:16:09.656Z,6.3
2018-12-24T08:17:10.332Z,6.2
2018-12-24T08:18:11.007Z,6.3
2018-12-24T08:19:11.684Z,6.3
2018-12-24T08:20:12.407Z,6.3
2018-12-24T08:21:13.082Z,6.3
2018-12-24T08:22:13.806Z,6.3
2018-12-24T08:23:14.480Z,6.3
2018-12-24T08:24:15.155Z,6.3
2018-12-24T08:25:15.830Z,6.3
2018-12-24T08:26:16.504Z,6.3
2018-12-24T08:27:17.177Z,6.3
2018-12-24T08:28:17.855Z,6.3
2018-12-24T08:29:18.527Z,6.3
2018-12-24T08:30:19.202Z,6.3
2018-12-24T08:31:19.876Z,6.4
2018-12-24T08:32:20.551Z,6.3
2018-12-24T08:33:21.226Z,6.3
2018-12-24T08:34:21.901Z,6.3
2018-12-24T08:35:22.574Z,6.3
2018-12-24T08:36:23.247Z,6.3
2018-12-24T08:37:23.927Z,6.2
2018-12-24T08:38:24.596Z,6.3
2018-12-24T08:39:25.268Z,6.3
2018-12-24T08:40:25.947Z,6.3
2018-12-24T08:41:26.619Z,6.3
2018-12-24T08:42:27.294Z,6.3
2018-12-24T08:43:27.968Z,6.3
2018-12-24T08:44:28.642Z,6.3
2018-12-24T08:45:29.317Z,6.3
2018-12-24T08:46:29.992Z,6.3
2018-12-24T08:47:30.665Z,6.2
2018-12-24T08:48:31.340Z,6.3
2018-12-24T08:49:32.015Z,6.3
2018-12-24T08:50:32.691Z,6.3
2018-12-24T08:51:33.366Z,6.3
2018-12-24T08:52:34.040Z,6.3
2018-12-24T08:53:34.715Z,6.4
2018-12-24T08:54:35.391Z,6.3
2018-12-24T08:55:36.064Z,6.4
2018-12-24T08:56:36.739Z,6.3
2018-12-24T08:57:37.414Z,6.3
2018-12-24T08:58:38.091Z,6.2
2018-12-24T08:59:38.766Z,6.3
2018-12-24T09:00:39.443Z,6.3
2018-12-24T09:01:40.116Z,6.4
2018-12-24T09:02:40.789Z,6.4
2018-12-24T09:03:41.467Z,6.4
2018-12-24T09:04:42.140Z,6.4
2018-12-24T09:05:42.816Z,6.4
2018-12-24T09:06:43.491Z,6.4
2018-12-24T09:07:44.167Z,6.4
2018-12-24T09:08:44.843Z,6.4
2018-12-24T09:09:45.519Z,6.4
2018-12-24T09:10:46.193Z,6.3
2018-12-24T09:11:46.868Z,6.3
2018-12-24T09:12:47.544Z,6.3
2018-12-24T09:13:48.219Z,6.3
2018-12-24T09:14:50.332Z,6.2
2018-12-24T09:15:50.559Z,6.3
2018-12-24T09:16:51.284Z,6.2
2018-12-24T09:17:51.960Z,6.2
2018-12-24T09:18:52.634Z,6.4
2018-12-24T09:19:53.313Z,6.4
2018-12-24T09:20:53.987Z,6.5
2018-12-24T09:21:54.665Z,6.4
2018-12-24T09:22:55.336Z,6.5
2018-12-24T09:23:56.012Z,6.5
2018-12-24T09:24:56.686Z,6.5
2018-12-24T09:25:57.362Z,6.6
2018-12-24T09:26:58.037Z,6.6
2018-12-24T09:27:58.713Z,6.5
2018-12-24T09:28:59.390Z,6.5
2018-12-24T09:30:00.098Z,6.6
2018-12-24T09:31:00.789Z,6.5
2018-12-24T09:32:01.467Z,6.5
2018-12-24T09:33:02.143Z,6.5
2018-12-24T09:34:02.819Z,6.5
2018-12-24T09:35:03.494Z,6.5
2018-12-24T09:36:04.171Z,6.5
2018-12-24T09:37:04.845Z,6.7
2018-12-24T09:38:05.521Z,6.6
2018-12-24T09:39:06.196Z,6.6
2018-12-24T09:40:06.871Z,6.6
2018-12-24T09:41:07.552Z,6.7
2018-12-24T09:42:08.222Z,6.7
2018-12-24T09:43:08.899Z,6.7
2018-12-24T09:44:09.574Z,6.7
2018-12-24T09:45:10.247Z,6.7
2018-12-24T09:46:10.925Z,6.7
2018-12-24T09:47:11.601Z,6.7
2018-12-24T09:48:12.278Z,6.7
2018-12-24T09:49:12.956Z,6.6
2018-12-24T09:50:13.630Z,6.6
2018-12-24T09:51:14.305Z,6.6
2018-12-24T09:52:15.039Z,6.6
2018-12-24T09:53:15.701Z,6.6
2018-12-24T09:54:16.377Z,6.6
2018-12-24T09:55:17.051Z,6.6
2018-12-24T09:56:17.728Z,6.6
2018-12-24T09:57:18.401Z,6.6
2018-12-24T09:58:19.078Z,6.6
2018-12-24T09:59:19.754Z,6.5
2018-12-24T10:00:20.429Z,6.4
2018-12-24T10:01:21.107Z,6.5
2018-12-24T10:02:21.780Z,6.6
2018-12-24T10:03:22.459Z,6.5
2018-12-24T10:04:23.135Z,6.5
2018-12-24T10:05:23.809Z,6.5
2018-12-24T10:06:24.490Z,6.5
2018-12-24T10:07:25.160Z,6.5
2018-12-24T10:08:25.844Z,6.5
2018-12-24T10:09:26.513Z,6.5
2018-12-24T10:10:27.189Z,6.6
2018-12-24T10:11:27.864Z,6.6
2018-12-24T10:12:28.539Z,6.6
2018-12-24T10:13:29.215Z,6.6
2018-12-24T10:14:29.940Z,6.5
2018-12-24T10:15:30.608Z,6.5
2018-12-24T10:16:31.284Z,6.6
2018-12-24T10:17:31.959Z,6.7
2018-12-24T10:18:32.637Z,6.7
2018-12-24T10:19:33.312Z,6.7
2018-12-24T10:20:33.989Z,6.7
2018-12-24T10:21:34.664Z,6.7
2018-12-24T10:22:35.343Z,6.8
2018-12-24T10:23:36.015Z,6.8
2018-12-24T10:24:36.693Z,6.8
2018-12-24T10:25:37.367Z,6.9
2018-12-24T10:26:38.043Z,6.9
2018-12-24T10:27:38.718Z,7.0
2018-12-24T10:28:39.395Z,6.8
2018-12-24T10:29:40.071Z,7.0
2018-12-24T10:30:40.748Z,7.0
2018-12-24T10:31:41.423Z,7.2
2018-12-24T10:32:42.099Z,7.1
2018-12-24T10:33:42.776Z,7.3
2018-12-24T10:34:43.452Z,7.3
2018-12-24T10:35:44.128Z,7.4
2018-12-24T10:36:44.805Z,7.2
2018-12-24T10:37:45.527Z,7.2
2018-12-24T10:38:46.203Z,7.3
2018-12-24T10:39:46.877Z,7.3
2018-12-24T10:40:47.552Z,7.4
2018-12-24T10:41:48.227Z,7.3
2018-12-24T10:42:48.902Z,7.4
2018-12-24T10:43:49.579Z,7.4
2018-12-24T10:44:50.253Z,7.4
2018-12-24T10:45:50.930Z,7.5
2018-12-24T10:46:51.605Z,7.5
2018-12-24T10:47:52.280Z,7.6
2018-12-24T10:48:52.957Z,7.7
2018-12-24T10:49:53.631Z,7.7
2018-12-24T10:50:54.306Z,7.6
2018-12-24T10:51:54.983Z,7.7
2018-12-24T10:52:55.660Z,7.7
2018-12-24T10:53:56.335Z,7.8
2018-12-24T10:54:57.010Z,7.8
2018-12-24T10:55:57.683Z,7.7
2018-12-24T10:56:58.360Z,7.7
2018-12-24T10:57:59.038Z,7.7
2018-12-24T10:58:59.710Z,7.7
2018-12-24T11:00:00.475Z,7.8
2018-12-24T11:01:01.104Z,7.7
2018-12-24T11:02:01.779Z,7.8
2018-12-24T11:03:02.453Z,7.7
2018-12-24T11:04:03.127Z,7.6
2018-12-24T11:05:03.805Z,7.6
2018-12-24T11:06:04.483Z,7.7
2018-12-24T11:07:05.156Z,7.6
2018-12-24T11:08:05.832Z,7.6
2018-12-24T11:09:06.511Z,7.6
2018-12-24T11:10:07.189Z,7.7
2018-12-24T11:11:07.866Z,7.7
2018-12-24T11:12:08.543Z,7.7
2018-12-24T11:13:09.264Z,7.9
2018-12-24T11:14:09.938Z,7.9
2018-12-24T11:15:10.617Z,8.0
2018-12-24T11:16:11.292Z,8.1
2018-12-24T11:17:11.967Z,8.0
2018-12-24T11:18:12.642Z,8.1
2018-12-24T11:19:13.317Z,8.0
2018-12-24T11:20:14.062Z,8.0
2018-12-24T11:21:14.716Z,8.0
2018-12-24T11:22:15.385Z,7.9
2018-12-24T11:23:16.061Z,8.0
2018-12-24T11:24:16.739Z,7.9
2018-12-24T11:25:17.413Z,7.9
2018-12-24T11:26:18.089Z,8.0
2018-12-24T11:27:18.764Z,8.0
2018-12-24T11:28:19.441Z,8.0
2018-12-24T11:29:20.214Z,8.0
2018-12-24T11:30:20.842Z,7.9
2018-12-24T11:31:21.516Z,7.8
2018-12-24T11:32:22.192Z,7.8
2018-12-24T11:33:22.880Z,7.7
2018-12-24T11:34:23.593Z,7.7
2018-12-24T11:35:24.269Z,7.7
2018-12-24T11:36:24.944Z,7.6
2018-12-24T11:37:25.618Z,7.7
2018-12-24T11:38:26.296Z,7.7
2018-12-24T11:39:26.971Z,7.5
2018-12-24T11:40:27.645Z,7.5
2018-12-24T11:41:28.321Z,7.6
2018-12-24T11:42:28.999Z,7.5
2018-12-24T11:43:29.674Z,7.5
2018-12-24T11:44:30.348Z,7.4
2018-12-24T11:45:33.908Z,7.4
2018-12-24T11:46:31.743Z,7.5
2018-12-24T11:47:32.419Z,7.4
2018-12-24T11:48:33.093Z,7.4
2018-12-24T11:49:33.766Z,7.4
2018-12-24T11:50:34.441Z,7.4
2018-12-24T11:51:35.117Z,7.4
2018-12-24T11:52:35.789Z,7.2
2018-12-24T11:53:36.463Z,7.1
2018-12-24T11:54:37.139Z,7.1
2018-12-24T11:55:37.813Z,7.2
2018-12-24T11:56:38.487Z,7.2
2018-12-24T11:57:39.212Z,7.1
2018-12-24T11:58:39.888Z,7.0
2018-12-24T11:59:40.611Z,7.1
2018-12-24T12:00:41.287Z,7.1
2018-12-24T12:01:41.963Z,7.1
2018-12-24T12:02:42.635Z,7.0
2018-12-24T12:03:43.309Z,7.1
2018-12-24T12:04:43.986Z,7.0
2018-12-24T12:05:44.658Z,7.0
2018-12-24T12:06:45.334Z,7.0
2018-12-24T12:07:46.010Z,7.1
2018-12-24T12:08:46.683Z,7.0
2018-12-24T12:09:47.357Z,7.1
2018-12-24T12:10:48.032Z,6.9
2018-12-24T12:11:48.705Z,7.0
2018-12-24T12:12:49.380Z,7.0
2018-12-24T12:13:50.053Z,7.0
2018-12-24T12:14:50.728Z,7.0
2018-12-24T12:15:51.401Z,7.0
2018-12-24T12:16:52.074Z,7.0
2018-12-24T12:17:52.748Z,7.1
2018-12-24T12:18:53.424Z,7.0
2018-12-24T12:19:54.094Z,7.0
2018-12-24T12:20:54.769Z,7.0
2018-12-24T12:21:55.443Z,7.0
2018-12-24T12:22:56.115Z,6.9
2018-12-24T12:23:56.788Z,7.0
2018-12-24T12:24:57.463Z,7.0
2018-12-24T12:25:58.135Z,6.9
2018-12-24T12:26:58.809Z,7.0
2018-12-24T12:27:59.483Z,6.9
2018-12-24T12:29:00.157Z,7.0
2018-12-24T12:30:00.881Z,6.9
2018-12-24T12:31:01.555Z,6.9
2018-12-24T12:32:02.279Z,7.0
2018-12-24T12:33:02.953Z,6.8
2018-12-24T12:34:03.631Z,6.9
2018-12-24T12:35:04.308Z,6.9
2018-12-24T12:36:04.975Z,6.9
2018-12-24T12:37:05.651Z,6.8
2018-12-24T12:38:06.324Z,6.8
2018-12-24T12:39:06.999Z,6.8
2018-12-24T12:40:07.720Z,6.8
2018-12-24T12:41:08.396Z,6.8
2018-12-24T12:42:09.069Z,6.7
2018-12-24T12:43:09.741Z,6.7
2018-12-24T12:44:10.416Z,6.7
2018-12-24T12:45:11.091Z,6.7
2018-12-24T12:46:11.767Z,6.6
2018-12-24T12:47:12.441Z,6.6
2018-12-24T12:48:13.114Z,6.5
2018-12-24T12:49:13.791Z,6.5
2018-12-24T12:50:14.468Z,6.5
2018-12-24T12:51:15.142Z,6.4
2018-12-24T12:52:15.815Z,6.3
2018-12-24T12:53:16.489Z,6.2
2018-12-24T12:54:17.165Z,6.2
2018-12-24T12:55:17.840Z,6.1
2018-12-24T12:56:18.562Z,6.2
2018-12-24T12:57:19.237Z,6.1
2018-12-24T12:58:19.912Z,6.1
2018-12-24T12:59:20.588Z,6.2
2018-12-24T13:00:21.260Z,6.2
2018-12-24T13:01:21.933Z,6.3
2018-12-24T13:02:22.644Z,6.2
2018-12-24T13:03:23.335Z,6.3
2018-12-24T13:04:24.010Z,6.3
2018-12-24T13:05:24.685Z,6.2
2018-12-24T13:06:25.358Z,6.2
2018-12-24T13:07:26.081Z,6.2
2018-12-24T13:08:26.752Z,6.1
2018-12-24T13:09:27.428Z,6.1
2018-12-24T13:10:28.099Z,6.1
2018-12-24T13:11:28.771Z,6.1
2018-12-24T13:12:29.446Z,6.0
2018-12-24T13:13:36.795Z,5.9
2018-12-24T13:14:31.783Z,5.9
2018-12-24T13:15:32.456Z,5.9
2018-12-24T13:16:33.128Z,5.9
2018-12-24T13:17:33.802Z,5.9
2018-12-24T13:18:34.476Z,5.9
2018-12-24T13:19:35.148Z,5.9
2018-12-24T13:20:35.823Z,5.9
2018-12-24T13:21:36.496Z,6.0
2018-12-24T13:22:37.169Z,6.0
2018-12-24T13:23:37.844Z,5.9
2018-12-24T13:24:38.519Z,6.0
2018-12-24T13:25:39.191Z,5.9
2018-12-24T13:26:39.913Z,6.1
2018-12-24T13:27:40.587Z,6.1
2018-12-24T13:28:41.263Z,6.1
2018-12-24T13:29:41.936Z,6.1
2018-12-24T13:30:42.610Z,6.2
2018-12-24T13:31:43.285Z,6.2
2018-12-24T13:32:43.960Z,6.1
2018-12-24T13:33:44.633Z,6.2
2018-12-24T13:34:45.308Z,6.2
2018-12-24T13:35:45.982Z,6.2
2018-12-24T13:36:46.657Z,6.2
2018-12-24T13:37:47.332Z,6.1
2018-12-24T13:38:48.007Z,6.2
2018-12-24T13:39:48.932Z,6.2
2018-12-24T13:40:49.605Z,6.1
2018-12-24T13:41:50.277Z,6.1
2018-12-24T13:42:50.951Z,6.0
2018-12-24T13:43:51.626Z,5.9
2018-12-24T13:44:52.302Z,5.9
2018-12-24T13:45:52.975Z,6.0
2018-12-24T13:46:53.651Z,5.8
2018-12-24T13:47:54.325Z,5.9
2018-12-24T13:48:55.048Z,6.0
2018-12-24T13:49:55.724Z,5.9
2018-12-24T13:50:56.398Z,5.9
2018-12-24T13:51:57.073Z,5.9
2018-12-24T13:52:57.750Z,5.8
2018-12-24T13:53:58.421Z,5.8
2018-12-24T13:54:59.096Z,5.8
2018-12-24T13:55:59.768Z,5.8